Sant Pere de Ribes, Spain
Current Conditions -  °F | °C
As of 2:00 PM on Saturday 25 Oct 2014 (Local Time) from LEBL Reporting Station
Clear Clear  
Wind Chill: 73°   Ceiling: Unl
Heat Index: 73°   Visibility: 6mi
Dew Point: 61°   Wind: 8mph
Humidity: 65%   Direction: 210°SSW
Pressure: 30.09"   Gusts: NA
Location:  41.27°N, 1.77°E
Report Text: LEBL 251200Z 21007KT 180V240 CAVOK 23/16 Q1019 NOSIG
Loading
Personal Weather Stations






























Interactive Weather Map
Tropical Storm Tracking
New forecast layout! Learn more

10-Day Weather Forecast

Advertisements
Track Severe Weather on mobile